Time;durP1;ratioP1;P1;durP2;ratioP2;P2;SDS_P1;SDS_P2;PMS_P1;PMS_P2;Temp;Humidity;BMP_temperature;BMP_pressure;BME280_temperature;BME280_humidity;BME280_pressure;Samples;Min_cycle;Max_cycle;Signal;HPM_P1;HPM_P2
2023/10/17 00:01:44;;;;;;;;;;;;;;;4.11;59.30;95767.22;4949186;28;20228;-69
2023/10/17 00:06:44;;;;;;;;;;;;;;;4.04;59.90;95772.16;4967128;28;20021;-69
2023/10/17 00:09:09;;;;;;;;;;;;;;;4.03;59.83;95773.97;4973169;28;20012;-69
2023/10/17 00:14:18;;;;;;;;;;;;;;;3.93;60.17;95768.66;4969286;28;20041;-69
2023/10/17 00:16:44;;;;;;;;;;;;;;;3.92;60.14;95761.72;4966809;28;20020;-69
2023/10/17 00:19:09;;;;;;;;;;;;;;;3.89;59.54;95772.53;4968588;28;20261;-69
2023/10/17 00:21:35;;;;;;;;;;;;;;;3.85;60.35;95765.88;4966053;28;19962;-69
2023/10/17 00:24:04;;;;;;;;;;;;;;;3.86;60.33;95769.31;4969932;28;20363;-69
2023/10/17 00:26:30;;;;;;;;;;;;;;;3.79;60.66;95769.00;4966834;28;20401;-69
2023/10/17 00:28:56;;;;;;;;;;;;;;;3.77;60.31;95760.41;4968661;28;19906;-70
2023/10/17 00:31:21;;;;;;;;;;;;;;;3.71;60.55;95756.50;4969902;28;20758;-69
2023/10/17 00:33:49;;;;;;;;;;;;;;;3.57;60.64;95749.78;4965735;28;19929;-69
2023/10/17 00:36:16;;;;;;;;;;;;;;;3.57;60.51;95748.94;4970018;28;19921;-69
2023/10/17 00:38:43;;;;;;;;;;;;;;;3.56;61.16;95740.22;4971024;28;19997;-69
2023/10/17 00:41:10;;;;;;;;;;;;;;;3.43;61.39;95746.50;4971795;28;19937;-69
2023/10/17 00:43:35;;;;;;;;;;;;;;;3.41;61.96;95734.44;4970180;28;19918;-69
2023/10/17 00:46:00;;;;;;;;;;;;;;;3.29;61.74;95728.38;4969031;28;19932;-69
2023/10/17 00:48:26;;;;;;;;;;;;;;;3.30;61.62;95732.69;4971656;28;20272;-69
2023/10/17 00:50:56;;;;;;;;;;;;;;;3.24;61.79;95736.69;4973544;28;20557;-69
2023/10/17 00:53:21;;;;;;;;;;;;;;;3.25;61.46;95732.25;4971177;28;20487;-69
2023/10/17 00:55:50;;;;;;;;;;;;;;;3.21;61.74;95741.38;4964013;28;19925;-69
2023/10/17 00:58:18;;;;;;;;;;;;;;;3.18;61.54;95737.19;4970078;28;19918;-69
2023/10/17 01:00:48;;;;;;;;;;;;;;;3.15;61.90;95734.81;4965255;28;19914;-69
2023/10/17 01:03:13;;;;;;;;;;;;;;;3.13;60.12;95734.94;4966247;28;19918;-69
2023/10/17 01:06:13;;;;;;;;;;;;;;;3.10;60.87;95750.97;4967090;28;19914;-69
2023/10/17 01:08:44;;;;;;;;;;;;;;;3.11;62.13;95751.81;4966739;28;19921;-69
2023/10/17 01:11:15;;;;;;;;;;;;;;;3.07;61.91;95753.03;4965684;28;20417;-69
2023/10/17 01:13:40;;;;;;;;;;;;;;;3.11;60.79;95751.81;4967702;28;20311;-69
2023/10/17 01:16:12;;;;;;;;;;;;;;;3.14;61.65;95747.13;4964467;28;19918;-69
2023/10/17 01:18:37;;;;;;;;;;;;;;;3.17;62.23;95740.78;4969131;28;19968;-69
2023/10/17 01:21:04;;;;;;;;;;;;;;;3.19;62.41;95751.19;4963991;28;20024;-69
2023/10/17 01:23:29;;;;;;;;;;;;;;;3.23;63.04;95745.53;4967535;28;20367;-71
2023/10/17 01:25:56;;;;;;;;;;;;;;;3.20;62.35;95737.06;4967728;28;20005;-73
2023/10/17 01:28:21;;;;;;;;;;;;;;;3.19;62.03;95738.84;4971664;28;19992;-70
2023/10/17 01:30:47;;;;;;;;;;;;;;;3.17;62.67;95746.88;4966052;28;20010;-72
2023/10/17 01:33:12;;;;;;;;;;;;;;;3.19;62.07;95749.38;4967292;28;19969;-73
2023/10/17 01:35:40;;;;;;;;;;;;;;;3.20;62.92;95745.78;4948551;28;20016;-70
2023/10/17 01:38:08;;;;;;;;;;;;;;;3.19;61.87;95743.31;4971124;28;19917;-70
2023/10/17 01:40:33;;;;;;;;;;;;;;;3.17;61.89;95751.31;4967073;28;20016;-70
2023/10/17 01:42:58;;;;;;;;;;;;;;;3.17;61.00;95757.41;4974364;28;19917;-71
2023/10/17 01:45:25;;;;;;;;;;;;;;;3.16;61.65;95765.41;4967376;28;20323;-73
2023/10/17 01:47:51;;;;;;;;;;;;;;;3.17;61.45;95751.31;4966785;28;20312;-69
2023/10/17 01:50:17;;;;;;;;;;;;;;;3.17;61.61;95746.88;4968852;28;19918;-71
2023/10/17 01:52:42;;;;;;;;;;;;;;;3.20;61.97;95743.16;4969985;28;20256;-71
2023/10/17 01:55:13;;;;;;;;;;;;;;;3.16;62.61;95732.06;4964304;28;19918;-71
2023/10/17 01:57:43;;;;;;;;;;;;;;;3.20;62.66;95718.66;4978902;28;19953;-71
2023/10/17 02:00:37;;;;;;;;;;;;;;;3.25;62.12;95719.09;4968622;28;20010;-70
2023/10/17 02:03:12;;;;;;;;;;;;;;;3.27;61.23;95712.72;4967759;28;19918;-70
2023/10/17 02:05:37;;;;;;;;;;;;;;;3.31;62.21;95710.69;4963866;28;19921;-70
2023/10/17 02:08:03;;;;;;;;;;;;;;;3.32;61.67;95709.72;4965875;28;19944;-73
2023/10/17 02:10:29;;;;;;;;;;;;;;;3.38;62.28;95709.22;4965740;28;19928;-72
2023/10/17 02:12:54;;;;;;;;;;;;;;;3.42;62.75;95718.50;4966229;28;19914;-70
2023/10/17 02:15:20;;;;;;;;;;;;;;;3.42;63.17;95715.88;4964828;28;19914;-70
2023/10/17 02:17:46;;;;;;;;;;;;;;;3.46;62.66;95710.34;4967558;28;20098;-73
2023/10/17 02:20:51;;;;;;;;;;;;;;;3.53;61.99;95719.41;4973085;28;19918;-71
2023/10/17 02:23:11;;;;;;;;;;;;;;;3.56;62.47;95719.16;4958964;28;20027;-71
2023/10/17 02:25:37;;;;;;;;;;;;;;;3.59;62.01;95718.91;4972864;28;19913;-72
2023/10/17 02:28:02;;;;;;;;;;;;;;;3.63;61.88;95712.41;4972706;28;20512;-71
2023/10/17 02:30:27;;;;;;;;;;;;;;;3.67;61.67;95708.53;4966216;28;19929;-69
2023/10/17 02:32:56;;;;;;;;;;;;;;;3.72;61.77;95723.09;4972502;28;19921;-69
2023/10/17 02:35:28;;;;;;;;;;;;;;;3.78;61.99;95712.03;4973470;28;20012;-69
2023/10/17 02:37:53;;;;;;;;;;;;;;;3.76;61.66;95708.69;4968576;28;19922;-69
2023/10/17 02:40:23;;;;;;;;;;;;;;;3.77;61.85;95702.47;4972383;28;19920;-69
2023/10/17 02:42:48;;;;;;;;;;;;;;;3.79;62.01;95700.53;4970045;28;19918;-69
2023/10/17 02:45:14;;;;;;;;;;;;;;;3.87;61.98;95700.69;4969144;28;19918;-69
2023/10/17 02:47:43;;;;;;;;;;;;;;;3.89;61.16;95703.19;4968083;28;19929;-69
2023/10/17 02:50:25;;;;;;;;;;;;;;;3.91;61.26;95707.38;4971675;28;20016;-69
2023/10/17 02:52:52;;;;;;;;;;;;;;;3.88;61.31;95709.44;4971765;28;19921;-69
2023/10/17 02:55:23;;;;;;;;;;;;;;;3.90;61.25;95705.72;4961076;28;20397;-69
2023/10/17 02:57:50;;;;;;;;;;;;;;;3.88;61.08;95696.28;4965129;28;19914;-69
2023/10/17 03:00:22;;;;;;;;;;;;;;;3.94;60.92;95691.31;4956004;28;19914;-69
2023/10/17 03:02:52;;;;;;;;;;;;;;;3.96;60.94;95690.31;4961935;28;19952;-69
2023/10/17 03:05:18;;;;;;;;;;;;;;;3.97;61.44;95695.47;4967904;28;20008;-69
2023/10/17 03:07:49;;;;;;;;;;;;;;;3.89;61.59;95690.88;4977995;28;20362;-69
2023/10/17 03:10:20;;;;;;;;;;;;;;;4.00;60.76;95692.56;4972314;28;19926;-69
2023/10/17 03:12:55;;;;;;;;;;;;;;;3.99;60.32;95692.69;4976362;28;19920;-69
2023/10/17 03:15:22;;;;;;;;;;;;;;;4.06;60.07;95683.28;4962584;28;20331;-69
2023/10/17 03:17:53;;;;;;;;;;;;;;;3.94;60.63;95680.75;4963545;28;19918;-69
2023/10/17 03:20:19;;;;;;;;;;;;;;;3.98;61.04;95673.41;4965305;28;20004;-69
2023/10/17 03:22:44;;;;;;;;;;;;;;;3.94;60.33;95672.00;4962115;28;20013;-69
2023/10/17 03:25:19;;;;;;;;;;;;;;;4.03;59.35;95673.00;4968751;28;19924;-70
2023/10/17 03:27:50;;;;;;;;;;;;;;;3.99;60.56;95668.97;4968074;28;19918;-69
2023/10/17 03:30:19;;;;;;;;;;;;;;;3.96;60.58;95671.88;4966103;28;19928;-69
2023/10/17 03:35:36;;;;;;;;;;;;;;;4.02;60.21;95666.09;4934934;28;19918;-69
2023/10/17 03:38:03;;;;;;;;;;;;;;;3.95;60.05;95663.16;4967733;28;19964;-69
2023/10/17 03:40:39;;;;;;;;;;;;;;;3.98;60.71;95664.69;4970441;28;19921;-69
2023/10/17 03:43:15;;;;;;;;;;;;;;;3.97;60.05;95665.63;4975729;28;19922;-72
2023/10/17 03:45:43;;;;;;;;;;;;;;;3.98;60.80;95662.06;4966001;28;19918;-67
2023/10/17 03:48:13;;;;;;;;;;;;;;;3.93;59.50;95662.44;4975886;28;19960;-68
2023/10/17 03:50:48;;;;;;;;;;;;;;;3.98;59.07;95654.97;4948700;28;19921;-69
2023/10/17 03:53:47;;;;;;;;;;;;;;;3.98;59.97;95669.97;4966922;28;19921;-70
2023/10/17 03:56:08;;;;;;;;;;;;;;;4.01;60.07;95682.88;4961188;28;19918;-67
2023/10/17 04:01:23;;;;;;;;;;;;;;;3.99;60.51;95687.44;4961228;28;20517;-67
2023/10/17 04:03:53;;;;;;;;;;;;;;;4.02;59.95;95676.63;4972961;28;19976;-68
2023/10/17 04:06:23;;;;;;;;;;;;;;;4.02;61.02;95677.44;4967265;28;19921;-68
2023/10/17 04:08:48;;;;;;;;;;;;;;;4.07;60.60;95682.31;4971846;28;19928;-70
2023/10/17 04:13:49;;;;;;;;;;;;;;;4.04;61.09;95678.16;4967907;28;19933;-68
2023/10/17 04:16:27;;;;;;;;;;;;;;;4.05;60.92;95674.53;4966512;28;19953;-68
2023/10/17 04:18:57;;;;;;;;;;;;;;;4.01;61.00;95667.06;4969417;28;19933;-67
2023/10/17 04:21:31;;;;;;;;;;;;;;;4.01;60.50;95682.88;4964156;28;20512;-68
2023/10/17 04:24:26;;;;;;;;;;;;;;;3.80;58.00;95689.88;4968543;28;19980;-67
2023/10/17 04:26:45;;;;;;;;;;;;;;;3.97;59.36;95686.72;4966343;28;19965;-69
2023/10/17 04:29:11;;;;;;;;;;;;;;;4.01;60.57;95690.78;4967842;28;19950;-68
2023/10/17 04:31:43;;;;;;;;;;;;;;;3.93;59.73;95689.63;4972989;28;19975;-69
2023/10/17 04:34:09;;;;;;;;;;;;;;;3.93;59.13;95679.09;4965130;28;20039;-69
2023/10/17 04:36:37;;;;;;;;;;;;;;;3.87;60.53;95670.88;4971556;28;20511;-68
2023/10/17 04:44:18;;;;;;;;;;;;;;;4.01;60.85;95670.50;4977120;28;19931;-69
2023/10/17 04:47:27;;;;;;;;;;;;;;;3.99;59.29;95663.72;4969017;28;19949;-68
2023/10/17 04:49:31;;;;;;;;;;;;;;;3.99;60.05;95661.06;4961851;28;20544;-69
2023/10/17 04:52:09;;;;;;;;;;;;;;;3.99;60.27;95669.81;4978360;28;19940;-68
2023/10/17 04:57:02;;;;;;;;;;;;;;;3.88;57.49;95677.84;4963149;28;19918;-73
2023/10/17 06:18:26;;;;;;;;;;;;;;;4.31;59.23;95694.28;4965079;28;19933;-68
2023/10/17 06:21:06;;;;;;;;;;;;;;;4.40;58.78;95693.47;4963229;28;20065;-69
2023/10/17 06:31:54;;;;;;;;;;;;;;;4.53;59.99;95695.00;4965177;28;19926;-69
2023/10/17 06:34:20;;;;;;;;;;;;;;;4.57;60.21;95681.41;4962976;28;19918;-68
2023/10/17 06:36:49;;;;;;;;;;;;;;;4.62;59.35;95688.88;4966509;28;20434;-68
2023/10/17 06:39:18;;;;;;;;;;;;;;;4.67;58.02;95676.13;4959294;28;19918;-67
2023/10/17 06:41:44;;;;;;;;;;;;;;;4.70;58.49;95672.38;4967873;28;19910;-70
2023/10/17 06:44:11;;;;;;;;;;;;;;;4.74;57.56;95675.56;4959098;28;20343;-68
2023/10/17 06:46:48;;;;;;;;;;;;;;;4.75;58.13;95680.72;4967575;28;20364;-69
2023/10/17 06:52:09;;;;;;;;;;;;;;;4.83;55.23;95670.28;4961085;28;19945;-66
2023/10/17 06:54:40;;;;;;;;;;;;;;;4.87;55.87;95683.19;4968327;28;20482;-67
2023/10/17 06:57:19;;;;;;;;;;;;;;;4.94;57.86;95695.66;4955369;28;19913;-69
2023/10/17 06:59:50;;;;;;;;;;;;;;;4.77;58.47;95706.94;4959988;28;19968;-67
2023/10/17 07:02:34;;;;;;;;;;;;;;;5.02;57.34;95699.41;4953042;28;20005;-69
2023/10/17 07:05:01;;;;;;;;;;;;;;;5.07;58.13;95691.97;4957148;28;19925;-68
2023/10/17 07:07:39;;;;;;;;;;;;;;;5.25;57.63;95689.41;4959708;28;19980;-69
2023/10/17 07:10:17;;;;;;;;;;;;;;;5.13;56.64;95688.75;4960543;28;19972;-68
2023/10/17 07:12:50;;;;;;;;;;;;;;;5.33;57.42;95693.97;4961773;28;20485;-68
2023/10/17 07:15:18;;;;;;;;;;;;;;;5.45;55.42;95695.47;4957113;28;19967;-68
2023/10/17 07:18:09;;;;;;;;;;;;;;;5.40;55.71;95695.06;4957529;28;19921;-68
2023/10/17 07:23:19;;;;;;;;;;;;;;;5.47;55.39;95690.88;4961849;28;19968;-68
2023/10/17 07:25:49;;;;;;;;;;;;;;;5.60;55.90;95693.22;4960932;28;20775;-67
2023/10/17 07:28:15;;;;;;;;;;;;;;;5.48;55.02;95692.53;4958317;28;19914;-68
2023/10/17 07:30:49;;;;;;;;;;;;;;;5.57;53.97;95703.22;4952368;28;20537;-67
2023/10/17 07:33:17;;;;;;;;;;;;;;;5.68;52.82;95715.44;4958781;28;20609;-68
2023/10/17 07:35:42;;;;;;;;;;;;;;;5.86;53.68;95712.84;4958098;28;19918;-68
2023/10/17 07:38:07;;;;;;;;;;;;;;;5.93;53.11;95700.72;4960981;28;19969;-69
2023/10/17 07:40:45;;;;;;;;;;;;;;;5.87;48.59;95701.28;4960441;28;20082;-69
2023/10/17 07:43:10;;;;;;;;;;;;;;;6.09;53.37;95712.47;4960841;28;20174;-68
2023/10/17 07:45:38;;;;;;;;;;;;;;;6.17;54.13;95707.28;4959731;28;19926;-69
2023/10/17 07:48:09;;;;;;;;;;;;;;;6.27;49.80;95709.00;4966425;28;19918;-68
2023/10/17 07:50:38;;;;;;;;;;;;;;;6.37;53.50;95707.16;4969913;28;20241;-67
2023/10/17 07:53:05;;;;;;;;;;;;;;;6.30;53.62;95716.66;4955664;28;20616;-68
2023/10/17 07:55:36;;;;;;;;;;;;;;;6.24;51.54;95718.94;4958196;28;20000;-67
2023/10/17 07:58:06;;;;;;;;;;;;;;;6.20;53.10;95716.72;4967863;28;20056;-67
2023/10/17 08:00:35;;;;;;;;;;;;;;;6.49;52.47;95718.38;4959418;28;19922;-67
2023/10/17 08:03:06;;;;;;;;;;;;;;;6.60;52.55;95710.22;4959239;28;20055;-68
2023/10/17 08:05:37;;;;;;;;;;;;;;;6.64;50.90;95716.06;4960326;28;19922;-67
2023/10/17 08:08:08;;;;;;;;;;;;;;;6.71;52.94;95711.81;4966941;28;20728;-67
2023/10/17 08:10:33;;;;;;;;;;;;;;;6.74;53.02;95714.16;4960607;28;20021;-67
2023/10/17 08:12:59;;;;;;;;;;;;;;;6.77;51.86;95721.78;4971518;28;20013;-68
2023/10/17 08:16:04;;;;;;;;;;;;;;;6.89;51.19;95711.81;4961802;28;19981;-67
2023/10/17 08:18:17;;;;;;;;;;;;;;;6.81;47.57;95705.63;4962715;28;19922;-67
2023/10/17 08:20:54;;;;;;;;;;;;;;;7.04;48.52;95708.59;4964452;28;20565;-68
2023/10/17 08:23:19;;;;;;;;;;;;;;;6.94;48.27;95715.81;4966117;28;19921;-66
2023/10/17 08:25:54;;;;;;;;;;;;;;;7.06;49.65;95711.94;4966366;28;19925;-67
2023/10/17 08:28:32;;;;;;;;;;;;;;;7.10;44.89;95701.88;4965954;28;19926;-68
2023/10/17 08:33:57;;;;;;;;;;;;;;;7.11;47.50;95699.06;4968336;28;19941;-69
2023/10/17 08:36:42;;;;;;;;;;;;;;;6.99;47.31;95695.84;4965927;28;20690;-68
2023/10/17 08:42:14;;;;;;;;;;;;;;;7.22;48.55;95684.75;4939740;28;20009;-68
2023/10/17 08:44:46;;;;;;;;;;;;;;;7.24;45.72;95682.78;4962218;28;19948;-68
2023/10/17 08:47:16;;;;;;;;;;;;;;;7.38;48.49;95688.50;4966681;28;19921;-68
2023/10/17 08:49:44;;;;;;;;;;;;;;;7.23;46.33;95675.81;4953182;28;19933;-68
2023/10/17 08:52:18;;;;;;;;;;;;;;;7.44;47.51;95690.50;4963688;28;20052;-68
2023/10/17 08:54:44;;;;;;;;;;;;;;;7.33;46.11;95686.31;4965073;28;19968;-68
2023/10/17 08:57:09;;;;;;;;;;;;;;;7.49;46.96;95687.41;4948398;28;20268;-68
2023/10/17 09:04:52;;;;;;;;;;;;;;;8.05;45.33;95671.13;4959710;28;20523;-68
2023/10/17 09:07:31;;;;;;;;;;;;;;;8.04;41.06;95664.16;4969353;28;19952;-68
2023/10/17 09:10:03;;;;;;;;;;;;;;;8.23;46.18;95681.59;4964587;28;19965;-67
2023/10/17 09:12:29;;;;;;;;;;;;;;;7.76;40.27;95673.13;4939940;28;19945;-68
2023/10/17 09:14:56;;;;;;;;;;;;;;;7.88;40.71;95676.38;4964680;28;19951;-68
2023/10/17 09:19:52;;;;;;;;;;;;;;;8.21;45.40;95685.41;4967099;28;19924;-67
2023/10/17 09:22:24;;;;;;;;;;;;;;;8.33;43.17;95683.31;4949542;28;19923;-67
2023/10/17 09:24:49;;;;;;;;;;;;;;;8.56;46.08;95683.50;4962082;28;19972;-68
2023/10/17 09:27:15;;;;;;;;;;;;;;;8.47;43.20;95690.63;4975901;28;20476;-68
2023/10/17 09:29:47;;;;;;;;;;;;;;;8.53;44.35;95689.13;4962886;28;19921;-68
2023/10/17 09:32:12;;;;;;;;;;;;;;;8.70;43.68;95687.34;4968669;28;19929;-68
2023/10/17 09:34:38;;;;;;;;;;;;;;;8.75;41.77;95685.03;4965865;28;19913;-68
2023/10/17 09:37:12;;;;;;;;;;;;;;;8.75;41.31;95678.88;4963353;28;20276;-69
2023/10/17 09:39:39;;;;;;;;;;;;;;;8.97;42.23;95682.72;4964854;28;20566;-69
2023/10/17 09:42:05;;;;;;;;;;;;;;;9.08;40.90;95687.72;4963006;28;19937;-69
2023/10/17 09:44:32;;;;;;;;;;;;;;;9.31;42.00;95686.19;4964845;28;19922;-68
2023/10/17 09:46:57;;;;;;;;;;;;;;;9.58;40.70;95689.47;4969408;28;19914;-68
2023/10/17 09:49:24;;;;;;;;;;;;;;;9.75;43.47;95690.25;4966872;28;20347;-68
2023/10/17 09:51:49;;;;;;;;;;;;;;;9.82;40.37;95677.94;4963439;28;19967;-67
2023/10/17 09:54:15;;;;;;;;;;;;;;;9.95;40.73;95679.22;4965743;28;19917;-67
2023/10/17 09:56:42;;;;;;;;;;;;;;;10.12;41.46;95680.00;4961972;28;19961;-68
2023/10/17 09:59:11;;;;;;;;;;;;;;;10.21;39.72;95688.78;4945462;28;19922;-67
2023/10/17 10:01:37;;;;;;;;;;;;;;;10.27;42.06;95690.72;4962792;28;19910;-67
2023/10/17 10:04:02;;;;;;;;;;;;;;;10.29;38.57;95687.91;4965297;28;19972;-69
2023/10/17 10:06:31;;;;;;;;;;;;;;;10.45;40.06;95687.84;4969287;28;19924;-68
2023/10/17 10:09:26;;;;;;;;;;;;;;;10.78;39.41;95686.75;4978313;28;20008;-66
2023/10/17 10:11:51;;;;;;;;;;;;;;;10.67;37.52;95681.88;4964899;28;20012;-68
2023/10/17 10:14:23;;;;;;;;;;;;;;;10.71;36.16;95686.66;4967680;28;20403;-66
2023/10/17 10:16:54;;;;;;;;;;;;;;;10.77;38.38;95686.97;4962342;28;20013;-67
2023/10/17 10:19:19;;;;;;;;;;;;;;;10.92;36.36;95682.53;4969717;28;20013;-68
2023/10/17 10:21:52;;;;;;;;;;;;;;;11.05;38.27;95681.91;4968777;28;20009;-68
2023/10/17 10:24:18;;;;;;;;;;;;;;;11.03;37.31;95672.44;4963435;28;19961;-67
2023/10/17 10:26:43;;;;;;;;;;;;;;;11.09;38.65;95677.09;4954264;28;19964;-67
2023/10/17 10:29:23;;;;;;;;;;;;;;;11.24;36.95;95663.78;4954472;28;19960;-67
2023/10/17 10:31:48;;;;;;;;;;;;;;;11.44;38.85;95658.78;4950669;28;19926;-67
2023/10/17 10:34:14;;;;;;;;;;;;;;;11.76;38.94;95662.06;4953368;28;20010;-67
2023/10/17 10:36:39;;;;;;;;;;;;;;;12.02;36.13;95646.59;4951108;28;19957;-67
2023/10/17 10:39:12;;;;;;;;;;;;;;;11.81;38.35;95656.19;4953122;28;19965;-67
2023/10/17 10:41:37;;;;;;;;;;;;;;;11.99;35.95;95650.47;4951194;28;20455;-68
2023/10/17 10:44:03;;;;;;;;;;;;;;;12.19;33.35;95655.25;4951324;28;19928;-70
2023/10/17 10:46:28;;;;;;;;;;;;;;;12.17;31.96;95653.78;4952869;28;20111;-70
2023/10/17 10:48:53;;;;;;;;;;;;;;;12.01;33.04;95650.28;4934816;28;19917;-67
2023/10/17 10:51:24;;;;;;;;;;;;;;;12.12;36.55;95643.66;4951157;28;19926;-64
2023/10/17 10:53:54;;;;;;;;;;;;;;;12.27;34.98;95646.28;4950611;28;19922;-67
2023/10/17 10:56:21;;;;;;;;;;;;;;;12.12;32.19;95641.00;4948001;28;20323;-67
2023/10/17 10:58:55;;;;;;;;;;;;;;;11.82;36.27;95635.66;4953319;28;19921;-69
2023/10/17 11:01:21;;;;;;;;;;;;;;;11.48;34.08;95646.72;4950661;28;19933;-69
2023/10/17 11:03:47;;;;;;;;;;;;;;;11.81;34.33;95650.88;4952458;28;19941;-71
2023/10/17 11:06:13;;;;;;;;;;;;;;;11.54;38.02;95642.50;4965818;28;19984;-75
2023/10/17 11:08:41;;;;;;;;;;;;;;;11.21;35.27;95634.81;4962056;28;19921;-76
2023/10/17 11:11:09;;;;;;;;;;;;;;;11.54;36.56;95631.84;4965106;28;19925;-76
2023/10/17 11:13:36;;;;;;;;;;;;;;;11.45;33.87;95608.94;4969810;28;19917;-74
2023/10/17 11:16:01;;;;;;;;;;;;;;;11.62;35.71;95610.41;4945170;28;19914;-76
2023/10/17 11:18:28;;;;;;;;;;;;;;;11.78;34.92;95603.22;4966797;28;19973;-76
2023/10/17 11:20:54;;;;;;;;;;;;;;;12.14;34.30;95598.97;4948644;28;19910;-74
2023/10/17 11:23:19;;;;;;;;;;;;;;;12.30;32.01;95597.06;4967621;28;20031;-76
2023/10/17 11:25:45;;;;;;;;;;;;;;;12.44;32.13;95593.50;4967635;28;20566;-75
2023/10/17 11:28:10;;;;;;;;;;;;;;;12.77;32.20;95593.00;4975119;28;19926;-76
2023/10/17 11:30:40;;;;;;;;;;;;;;;12.45;32.37;95600.50;4972735;28;19918;-74
2023/10/17 11:33:05;;;;;;;;;;;;;;;12.59;32.76;95589.94;4963446;28;19910;-76
2023/10/17 11:35:37;;;;;;;;;;;;;;;12.87;33.60;95603.34;4961199;28;19965;-75
2023/10/17 11:38:02;;;;;;;;;;;;;;;13.00;32.48;95601.81;4974087;28;19926;-74
2023/10/17 11:40:29;;;;;;;;;;;;;;;13.14;30.77;95590.22;4960725;28;19933;-76
2023/10/17 11:42:54;;;;;;;;;;;;;;;13.33;32.23;95598.56;4967774;28;19960;-76
2023/10/17 11:45:25;;;;;;;;;;;;;;;13.10;30.29;95590.78;4967586;28;19961;-74
2023/10/17 11:47:50;;;;;;;;;;;;;;;13.53;31.29;95589.84;4956084;28;20445;-76
2023/10/17 11:50:30;;;;;;;;;;;;;;;13.69;30.30;95591.34;4956402;28;19930;-76
2023/10/17 11:52:58;;;;;;;;;;;;;;;13.87;30.10;95596.16;4953549;28;19925;-75
2023/10/17 11:55:24;;;;;;;;;;;;;;;13.68;33.20;95597.72;4973757;28;20617;-76
2023/10/17 11:57:49;;;;;;;;;;;;;;;13.79;29.97;95591.81;4965235;28;19921;-74
2023/10/17 12:02:43;;;;;;;;;;;;;;;14.11;29.51;95596.66;4966365;28;19972;-75
2023/10/17 12:05:18;;;;;;;;;;;;;;;14.25;30.57;95596.72;4965960;28;19949;-75
2023/10/17 12:07:49;;;;;;;;;;;;;;;14.32;29.29;95584.19;4967498;28;20001;-76
2023/10/17 12:10:15;;;;;;;;;;;;;;;13.98;29.22;95586.78;4966377;28;20208;-74
2023/10/17 12:12:40;;;;;;;;;;;;;;;14.53;33.01;95574.31;4966459;28;19918;-76
2023/10/17 12:15:06;;;;;;;;;;;;;;;15.59;26.84;95579.88;4966587;28;19920;-75
2023/10/17 12:17:31;;;;;;;;;;;;;;;16.85;27.00;95576.94;4973901;28;19918;-75
2023/10/17 12:19:56;;;;;;;;;;;;;;;18.27;24.52;95580.84;4974756;28;19922;-75
2023/10/17 12:22:21;;;;;;;;;;;;;;;19.91;22.69;95575.25;4961993;28;19914;-75
2023/10/17 12:24:47;;;;;;;;;;;;;;;21.55;22.00;95574.84;4970582;28;20724;-77
2023/10/17 12:27:12;;;;;;;;;;;;;;;23.84;19.36;95577.00;4980495;28;19941;-75
2023/10/17 12:29:40;;;;;;;;;;;;;;;26.01;17.63;95576.56;4970788;28;19918;-75
2023/10/17 12:32:05;;;;;;;;;;;;;;;27.08;16.96;95584.38;4965354;28;20339;-75
2023/10/17 12:34:32;;;;;;;;;;;;;;;27.47;14.23;95577.25;4965832;28;19924;-68
2023/10/17 12:36:57;;;;;;;;;;;;;;;28.24;15.86;95563.78;4956500;28;19922;-74
2023/10/17 12:39:23;;;;;;;;;;;;;;;29.72;13.97;95562.00;4943618;28;19922;-75
2023/10/17 12:41:49;;;;;;;;;;;;;;;30.54;14.29;95555.91;4928075;28;19914;-76
2023/10/17 12:44:14;;;;;;;;;;;;;;;30.62;13.45;95564.53;4944100;28;19919;-76
2023/10/17 12:46:40;;;;;;;;;;;;;;;32.70;11.78;95567.28;4942499;28;20589;-76
2023/10/17 12:49:12;;;;;;;;;;;;;;;33.44;11.69;95563.81;4939612;28;20182;-77
2023/10/17 12:51:38;;;;;;;;;;;;;;;34.41;10.20;95561.41;4945323;28;20641;-76
2023/10/17 12:54:03;;;;;;;;;;;;;;;35.12;10.56;95568.28;4952351;28;19937;-74
2023/10/17 12:56:29;;;;;;;;;;;;;;;35.70;9.97;95562.00;4944730;28;20009;-75
2023/10/17 12:58:54;;;;;;;;;;;;;;;36.91;9.56;95555.38;4954195;28;20011;-75
2023/10/17 13:01:24;;;;;;;;;;;;;;;36.80;9.43;95552.28;4943467;28;20347;-76
2023/10/17 13:03:53;;;;;;;;;;;;;;;36.91;9.68;95558.94;4955971;28;19918;-76
2023/10/17 13:06:20;;;;;;;;;;;;;;;37.37;9.11;95545.91;4938652;28;20403;-81
2023/10/17 13:08:46;;;;;;;;;;;;;;;37.39;9.24;95555.50;4955400;28;19922;-78
2023/10/17 13:11:11;;;;;;;;;;;;;;;38.14;8.34;95554.16;4938181;28;19914;-79
2023/10/17 13:13:36;;;;;;;;;;;;;;;37.17;8.42;95543.81;4954812;28;19981;-77
2023/10/17 13:16:05;;;;;;;;;;;;;;;38.84;8.04;95540.56;4943946;28;20616;-77
2023/10/17 13:18:30;;;;;;;;;;;;;;;37.98;8.23;95538.28;4951127;28;19926;-79
2023/10/17 13:21:06;;;;;;;;;;;;;;;39.29;6.80;95526.31;4951793;28;19962;-76
2023/10/17 13:23:32;;;;;;;;;;;;;;;39.92;6.75;95532.53;4943465;28;19925;-76
2023/10/17 13:25:58;;;;;;;;;;;;;;;40.12;7.00;95519.34;4945110;28;20001;-79
2023/10/17 13:28:23;;;;;;;;;;;;;;;38.77;7.75;95518.97;4943230;28;20000;-76
2023/10/17 13:30:48;;;;;;;;;;;;;;;38.45;7.38;95519.09;4944265;28;20399;-77
2023/10/17 13:33:13;;;;;;;;;;;;;;;38.20;6.80;95517.38;4943801;28;19968;-76
2023/10/17 13:35:40;;;;;;;;;;;;;;;38.73;7.33;95513.34;4947076;28;20009;-76
2023/10/17 13:38:05;;;;;;;;;;;;;;;39.74;7.41;95523.91;4966585;28;20383;-76
2023/10/17 13:40:32;;;;;;;;;;;;;;;39.47;7.06;95509.94;4955890;28;19938;-78
2023/10/17 13:42:58;;;;;;;;;;;;;;;38.02;6.81;95507.84;4967776;28;19922;-76
2023/10/17 13:45:23;;;;;;;;;;;;;;;39.26;7.57;95509.16;4966478;28;19914;-75
2023/10/17 13:47:49;;;;;;;;;;;;;;;39.23;7.43;95507.13;4970622;28;19962;-76
2023/10/17 13:50:15;;;;;;;;;;;;;;;39.78;6.44;95510.03;4961417;28;19921;-75
2023/10/17 13:52:41;;;;;;;;;;;;;;;39.67;6.58;95510.66;4961984;28;20311;-78
2023/10/17 13:55:09;;;;;;;;;;;;;;;40.75;6.62;95505.00;4960020;28;19929;-76
2023/10/17 13:57:34;;;;;;;;;;;;;;;40.40;6.56;95500.56;4964189;28;20319;-76
2023/10/17 14:00:00;;;;;;;;;;;;;;;40.89;5.91;95498.00;4965108;28;19933;-75
2023/10/17 14:02:25;;;;;;;;;;;;;;;41.44;5.73;95485.38;4966541;28;20031;-76
2023/10/17 14:04:52;;;;;;;;;;;;;;;41.31;5.89;95486.88;4966611;28;19918;-78
2023/10/17 14:07:18;;;;;;;;;;;;;;;41.86;5.78;95485.31;4970469;28;19914;-76
2023/10/17 14:09:43;;;;;;;;;;;;;;;41.54;5.83;95479.09;4967229;28;19989;-76
2023/10/17 14:12:08;;;;;;;;;;;;;;;40.55;5.45;95461.75;4974138;28;19960;-77
2023/10/17 14:14:35;;;;;;;;;;;;;;;40.76;5.32;95461.19;4970087;28;19976;-74
2023/10/17 14:17:01;;;;;;;;;;;;;;;41.63;5.52;95462.00;4969016;28;19925;-76
2023/10/17 14:24:52;;;;;;;;;;;;;;;41.62;4.99;95459.63;4966417;28;20025;-75
2023/10/17 14:27:21;;;;;;;;;;;;;;;42.03;5.55;95451.09;4972431;28;19972;-75
2023/10/17 14:29:47;;;;;;;;;;;;;;;41.72;4.60;95450.50;4971898;28;19953;-76
2023/10/17 14:32:14;;;;;;;;;;;;;;;42.03;5.24;95451.09;4968704;28;20000;-76
2023/10/17 14:34:39;;;;;;;;;;;;;;;41.57;4.87;95451.56;4976738;28;19932;-77
2023/10/17 14:37:05;;;;;;;;;;;;;;;42.19;5.36;95449.97;4974261;28;20374;-75
2023/10/17 14:39:31;;;;;;;;;;;;;;;41.99;5.23;95439.09;4971703;28;19922;-77
2023/10/17 14:41:56;;;;;;;;;;;;;;;41.73;5.25;95423.38;4967788;28;20462;-78
2023/10/17 14:44:22;;;;;;;;;;;;;;;41.76;5.36;95423.38;4968628;28;20173;-76
2023/10/17 14:46:47;;;;;;;;;;;;;;;39.98;5.81;95439.13;4961646;28;19947;-77
2023/10/17 14:49:13;;;;;;;;;;;;;;;40.61;6.05;95444.28;4966816;28;19926;-77
2023/10/17 14:51:38;;;;;;;;;;;;;;;40.30;6.28;95437.16;4966705;28;19925;-76
2023/10/17 14:54:08;;;;;;;;;;;;;;;40.15;5.69;95439.75;4967749;28;20312;-76
2023/10/17 14:56:33;;;;;;;;;;;;;;;38.73;6.46;95448.56;4967818;28;20366;-78
2023/10/17 14:58:59;;;;;;;;;;;;;;;37.70;7.31;95448.44;4969855;28;19922;-77
2023/10/17 15:01:26;;;;;;;;;;;;;;;38.23;7.37;95438.88;4972041;28;20443;-78
2023/10/17 15:03:51;;;;;;;;;;;;;;;38.30;7.40;95438.19;4966023;28;20370;-77
2023/10/17 15:06:16;;;;;;;;;;;;;;;37.13;7.39;95451.38;4969504;28;20150;-76
2023/10/17 15:08:42;;;;;;;;;;;;;;;36.73;8.00;95449.53;4972808;28;19918;-77
2023/10/17 15:11:10;;;;;;;;;;;;;;;36.68;7.49;95454.16;4965026;28;19914;-77
2023/10/17 15:13:36;;;;;;;;;;;;;;;36.58;8.12;95449.94;4964586;28;19966;-76
2023/10/17 15:16:04;;;;;;;;;;;;;;;34.75;9.44;95453.66;4967738;28;19942;-77
2023/10/17 15:18:32;;;;;;;;;;;;;;;33.92;9.00;95456.97;4967984;28;20863;-76